Time;durP1;ratioP1;P1;durP2;ratioP2;P2;SDS_P1;SDS_P2;PMS_P1;PMS_P2;Temp;Humidity;BMP_temperature;BMP_pressure;BME280_temperature;BME280_humidity;BME280_pressure;Samples;Min_cycle;Max_cycle;Signal;HPM_P1;HPM_P2
2021/11/29 00:00:12;;;;;;;3.30;1.80;;;;;;;;;;5093157;28;20156;-71
2021/11/29 00:02:39;;;;;;;3.78;2.00;;;;;;;;;;5092283;28;20020;-76
2021/11/29 00:05:05;;;;;;;3.72;1.90;;;;;;;;;;5093751;28;20103;-75
2021/11/29 00:07:31;;;;;;;3.13;1.52;;;;;;;;;;5109726;28;20019;-73
2021/11/29 00:09:57;;;;;;;4.22;1.83;;;;;;;;;;5112165;28;20078;-76
2021/11/29 00:12:23;;;;;;;3.05;1.80;;;;;;;;;;5100325;28;20101;-72
2021/11/29 00:14:49;;;;;;;3.45;1.73;;;;;;;;;;5094289;28;20033;-62
2021/11/29 00:17:16;;;;;;;3.10;1.60;;;;;;;;;;5092106;28;20400;-72
2021/11/29 00:19:42;;;;;;;3.40;2.00;;;;;;;;;;5090746;28;20534;-74
2021/11/29 00:22:08;;;;;;;3.83;1.85;;;;;;;;;;5093659;28;20085;-76
2021/11/29 00:24:34;;;;;;;4.95;2.17;;;;;;;;;;5089118;28;20018;-77
2021/11/29 00:27:00;;;;;;;5.22;1.85;;;;;;;;;;5092738;28;20495;-75
2021/11/29 00:29:26;;;;;;;3.40;1.80;;;;;;;;;;5074508;28;20046;-71
2021/11/29 00:31:52;;;;;;;3.60;2.05;;;;;;;;;;5093654;28;20031;-68
2021/11/29 00:34:21;;;;;;;4.65;2.35;;;;;;;;;;5104797;28;20024;-73
2021/11/29 00:36:47;;;;;;;4.00;2.25;;;;;;;;;;5092290;28;20028;-69
2021/11/29 00:39:15;;;;;;;3.63;2.15;;;;;;;;;;5092094;28;20020;-76
2021/11/29 00:41:41;;;;;;;3.55;1.90;;;;;;;;;;5092061;28;20009;-75
2021/11/29 00:44:07;;;;;;;4.18;2.20;;;;;;;;;;5092279;28;20348;-75
2021/11/29 00:46:33;;;;;;;3.60;2.10;;;;;;;;;;5092202;28;20044;-75
2021/11/29 00:48:59;;;;;;;5.35;2.40;;;;;;;;;;5094609;28;20027;-75
2021/11/29 00:51:26;;;;;;;5.10;2.90;;;;;;;;;;5112475;28;20461;-75
2021/11/29 00:53:52;;;;;;;4.70;2.53;;;;;;;;;;5112633;28;20079;-74
2021/11/29 00:56:20;;;;;;;4.55;2.65;;;;;;;;;;5112470;28;20068;-76
2021/11/29 00:58:46;;;;;;;6.15;3.03;;;;;;;;;;5090796;28;20463;-74
2021/11/29 01:01:12;;;;;;;4.50;2.75;;;;;;;;;;5092140;28;20032;-74
2021/11/29 01:03:39;;;;;;;4.88;2.67;;;;;;;;;;5091819;28;20035;-78
2021/11/29 01:06:06;;;;;;;4.30;2.58;;;;;;;;;;5092549;28;20016;-78
2021/11/29 01:08:32;;;;;;;5.13;2.80;;;;;;;;;;5092032;28;20027;-75
2021/11/29 01:10:59;;;;;;;4.95;2.97;;;;;;;;;;5091800;28;20032;-76
2021/11/29 01:13:25;;;;;;;5.53;3.00;;;;;;;;;;5091870;28;20016;-75
2021/11/29 01:15:51;;;;;;;6.65;3.20;;;;;;;;;;5091325;28;20109;-75
2021/11/29 01:18:17;;;;;;;5.40;2.92;;;;;;;;;;5091828;28;20104;-75
2021/11/29 01:20:44;;;;;;;4.75;3.03;;;;;;;;;;5091654;28;20012;-75
2021/11/29 01:23:11;;;;;;;5.20;3.15;;;;;;;;;;5092364;28;20024;-76
2021/11/29 01:25:37;;;;;;;5.00;3.17;;;;;;;;;;5091783;28;20031;-75
2021/11/29 01:28:03;;;;;;;4.72;3.13;;;;;;;;;;5091715;28;20025;-76
2021/11/29 01:30:30;;;;;;;5.13;3.10;;;;;;;;;;5091696;28;20034;-75
2021/11/29 01:32:56;;;;;;;5.22;3.22;;;;;;;;;;5091374;28;20039;-76
2021/11/29 01:35:22;;;;;;;5.13;3.10;;;;;;;;;;5091469;28;20031;-74
2021/11/29 01:37:48;;;;;;;5.75;3.53;;;;;;;;;;5091569;28;20032;-76
2021/11/29 01:40:14;;;;;;;5.65;3.38;;;;;;;;;;5092108;28;20020;-77
2021/11/29 01:42:53;;;;;;;5.38;3.33;;;;;;;;;;5091598;28;20020;-75
2021/11/29 01:45:20;;;;;;;4.78;3.03;;;;;;;;;;5091407;28;20113;-75
2021/11/29 01:47:46;;;;;;;6.20;3.30;;;;;;;;;;5076019;28;20019;-75
2021/11/29 01:50:12;;;;;;;5.07;3.45;;;;;;;;;;5110541;28;20015;-74
2021/11/29 01:52:38;;;;;;;5.32;3.38;;;;;;;;;;5092422;28;20040;-74
2021/11/29 01:55:04;;;;;;;5.22;3.33;;;;;;;;;;5092587;28;20483;-75
2021/11/29 01:57:30;;;;;;;4.88;3.35;;;;;;;;;;5103163;28;20035;-75
2021/11/29 01:59:56;;;;;;;5.10;3.10;;;;;;;;;;5091427;28;20028;-76
2021/11/29 02:02:27;;;;;;;5.13;3.03;;;;;;;;;;5091247;28;20555;-76
2021/11/29 02:04:54;;;;;;;6.13;3.90;;;;;;;;;;5073156;28;20016;-75
2021/11/29 02:07:20;;;;;;;5.47;3.30;;;;;;;;;;5091115;28;20081;-75
2021/11/29 02:09:46;;;;;;;5.72;3.33;;;;;;;;;;5091005;28;20433;-74
2021/11/29 02:12:12;;;;;;;5.53;3.42;;;;;;;;;;5072857;28;20032;-75
2021/11/29 02:14:39;;;;;;;5.57;3.10;;;;;;;;;;5091999;28;20016;-70
2021/11/29 02:17:06;;;;;;;5.57;3.17;;;;;;;;;;5073272;28;20123;-74
2021/11/29 02:19:38;;;;;;;5.53;3.42;;;;;;;;;;5091527;28;20625;-75
2021/11/29 02:22:05;;;;;;;5.03;3.13;;;;;;;;;;5091376;28;20025;-71
2021/11/29 02:24:31;;;;;;;5.85;3.45;;;;;;;;;;5091074;28;20055;-74
2021/11/29 02:26:57;;;;;;;5.50;3.30;;;;;;;;;;5091660;28;20025;-76
2021/11/29 02:29:23;;;;;;;6.05;3.40;;;;;;;;;;5095031;28;20016;-63
2021/11/29 02:31:49;;;;;;;5.25;2.88;;;;;;;;;;5076996;28;20372;-74
2021/11/29 02:34:18;;;;;;;4.95;3.17;;;;;;;;;;5076511;28;20032;-73
2021/11/29 02:36:44;;;;;;;5.93;3.88;;;;;;;;;;5094843;28;20038;-71
2021/11/29 02:39:11;;;;;;;5.07;2.95;;;;;;;;;;5094682;28;20095;-70
2021/11/29 02:41:38;;;;;;;5.55;3.47;;;;;;;;;;5076329;28;20016;-75
2021/11/29 02:44:04;;;;;;;5.32;3.38;;;;;;;;;;5094647;28;20017;-68
2021/11/29 02:46:30;;;;;;;5.32;3.05;;;;;;;;;;5094472;28;20036;-65
2021/11/29 02:48:57;;;;;;;5.60;3.10;;;;;;;;;;5095512;28;20034;-76
2021/11/29 02:51:25;;;;;;;4.75;2.75;;;;;;;;;;5101464;28;20036;-75
2021/11/29 02:53:53;;;;;;;4.40;2.92;;;;;;;;;;5114749;28;20391;-68
2021/11/29 02:56:19;;;;;;;5.35;3.35;;;;;;;;;;5106735;28;20101;-74
2021/11/29 02:58:45;;;;;;;5.13;2.90;;;;;;;;;;5112892;28;20099;-74
2021/11/29 03:01:11;;;;;;;5.18;2.75;;;;;;;;;;5113396;28;20055;-65
2021/11/29 03:03:44;;;;;;;4.60;2.80;;;;;;;;;;5112125;28;20101;-73
2021/11/29 03:06:10;;;;;;;9.63;3.70;;;;;;;;;;5113930;28;20027;-74
2021/11/29 03:08:36;;;;;;;25.42;4.10;;;;;;;;;;5096497;28;20482;-72
2021/11/29 03:11:03;;;;;;;12.95;3.47;;;;;;;;;;5114556;28;20521;-73
2021/11/29 03:13:29;;;;;;;7.03;3.28;;;;;;;;;;5114554;28;20054;-74
2021/11/29 03:15:55;;;;;;;7.70;3.40;;;;;;;;;;5114593;28;20038;-76
2021/11/29 03:18:35;;;;;;;15.75;3.58;;;;;;;;;;5096125;28;20023;-75
2021/11/29 03:21:01;;;;;;;6.93;3.28;;;;;;;;;;5114314;28;20027;-75
2021/11/29 03:23:27;;;;;;;10.10;3.05;;;;;;;;;;5113716;28;20027;-75
2021/11/29 03:25:53;;;;;;;9.30;4.13;;;;;;;;;;5114381;28;20102;-75
2021/11/29 03:28:19;;;;;;;6.70;3.45;;;;;;;;;;5114281;28;20104;-75
2021/11/29 03:30:45;;;;;;;6.70;2.97;;;;;;;;;;5114031;28;20524;-75
2021/11/29 03:33:12;;;;;;;6.82;3.33;;;;;;;;;;5114300;28;20144;-74
2021/11/29 03:35:38;;;;;;;10.85;3.45;;;;;;;;;;5114153;28;20398;-76
2021/11/29 03:38:04;;;;;;;6.07;2.90;;;;;;;;;;5095766;28;20023;-76
2021/11/29 03:40:32;;;;;;;5.80;3.28;;;;;;;;;;5112617;28;20099;-76
2021/11/29 03:42:58;;;;;;;6.40;3.33;;;;;;;;;;5113909;28;20020;-76
2021/11/29 03:45:24;;;;;;;5.28;2.88;;;;;;;;;;5114006;28;20046;-76
2021/11/29 03:47:50;;;;;;;6.03;3.20;;;;;;;;;;5095655;28;20185;-76
2021/11/29 03:50:16;;;;;;;5.68;2.95;;;;;;;;;;5095666;28;20030;-76
2021/11/29 03:52:42;;;;;;;5.10;2.80;;;;;;;;;;5095247;28;20108;-76
2021/11/29 03:55:09;;;;;;;5.20;2.70;;;;;;;;;;5113691;28;20016;-77
2021/11/29 03:57:35;;;;;;;13.50;3.28;;;;;;;;;;5097363;28;20027;-76
2021/11/29 04:00:01;;;;;;;4.93;2.80;;;;;;;;;;5093277;28;20024;-76
2021/11/29 04:02:27;;;;;;;5.65;3.00;;;;;;;;;;5075042;28;20077;-75
2021/11/29 04:04:53;;;;;;;4.75;3.03;;;;;;;;;;5093184;28;20032;-77
2021/11/29 04:07:20;;;;;;;4.90;3.00;;;;;;;;;;5093069;28;20450;-76
2021/11/29 04:09:46;;;;;;;4.97;2.95;;;;;;;;;;5092940;28;20020;-77
2021/11/29 04:12:13;;;;;;;4.85;2.83;;;;;;;;;;5074603;28;20160;-77
2021/11/29 04:14:39;;;;;;;6.38;3.25;;;;;;;;;;5075308;28;20070;-77
2021/11/29 04:17:05;;;;;;;5.72;3.30;;;;;;;;;;5092978;28;20059;-76
2021/11/29 04:19:34;;;;;;;6.22;3.60;;;;;;;;;;5092919;28;20106;-76
2021/11/29 04:22:00;;;;;;;5.60;3.00;;;;;;;;;;5092849;28;20020;-77
2021/11/29 04:24:26;;;;;;;4.88;2.97;;;;;;;;;;5092705;28;20444;-78
2021/11/29 04:26:54;;;;;;;5.28;2.88;;;;;;;;;;5092642;28;20099;-76
2021/11/29 04:29:26;;;;;;;5.55;2.88;;;;;;;;;;5092584;28;20051;-81
2021/11/29 04:31:52;;;;;;;6.05;3.50;;;;;;;;;;5092293;28;20032;-66
2021/11/29 04:34:18;;;;;;;5.50;3.17;;;;;;;;;;5092483;28;20020;-69
2021/11/29 04:36:44;;;;;;;5.85;2.70;;;;;;;;;;5092784;28;20479;-73
2021/11/29 04:39:10;;;;;;;5.22;3.25;;;;;;;;;;5074482;28;20407;-63
2021/11/29 04:41:36;;;;;;;6.75;3.42;;;;;;;;;;5092657;28;20022;-74
2021/11/29 04:44:02;;;;;;;6.25;3.38;;;;;;;;;;5092607;28;20104;-64
2021/11/29 04:46:28;;;;;;;6.43;3.33;;;;;;;;;;5102985;28;20047;-79
2021/11/29 04:48:55;;;;;;;8.23;4.07;;;;;;;;;;5112616;28;20040;-66
2021/11/29 04:51:21;;;;;;;5.97;3.65;;;;;;;;;;5111731;28;20119;-75
2021/11/29 04:53:47;;;;;;;9.20;3.63;;;;;;;;;;5112970;28;20015;-66
2021/11/29 04:56:13;;;;;;;5.70;3.72;;;;;;;;;;5112704;28;20024;-67
2021/11/29 04:58:39;;;;;;;6.53;3.42;;;;;;;;;;5112718;28;20023;-65
2021/11/29 05:01:05;;;;;;;5.28;3.05;;;;;;;;;;5110923;28;20028;-72
2021/11/29 05:03:35;;;;;;;7.15;3.90;;;;;;;;;;5092190;28;20028;-76
2021/11/29 05:06:01;;;;;;;6.68;3.67;;;;;;;;;;5092117;28;20478;-75
2021/11/29 05:08:27;;;;;;;5.95;3.65;;;;;;;;;;5074170;28;20028;-66
2021/11/29 05:10:53;;;;;;;6.35;3.10;;;;;;;;;;5092194;28;20016;-69
2021/11/29 05:13:19;;;;;;;8.02;3.30;;;;;;;;;;5092215;28;20020;-64
2021/11/29 05:15:45;;;;;;;6.00;3.63;;;;;;;;;;5073917;28;20020;-68
2021/11/29 05:18:11;;;;;;;6.30;3.38;;;;;;;;;;5073960;28;20410;-65
2021/11/29 05:20:37;;;;;;;6.35;3.90;;;;;;;;;;5092073;28;20076;-63
2021/11/29 05:23:03;;;;;;;5.65;3.50;;;;;;;;;;5092392;28;20023;-73
2021/11/29 05:25:29;;;;;;;5.43;3.10;;;;;;;;;;5092167;28;20031;-64
2021/11/29 05:27:55;;;;;;;6.38;3.67;;;;;;;;;;5092342;28;20016;-79
2021/11/29 05:30:21;;;;;;;6.35;3.72;;;;;;;;;;5092292;28;20154;-79
2021/11/29 05:32:49;;;;;;;6.70;3.55;;;;;;;;;;5092124;28;20115;-78
2021/11/29 05:35:15;;;;;;;5.65;3.17;;;;;;;;;;5092023;28;20016;-62
2021/11/29 05:37:41;;;;;;;7.32;4.13;;;;;;;;;;5091780;28;20030;-64
2021/11/29 05:40:07;;;;;;;5.63;3.60;;;;;;;;;;5091780;28;20051;-76
2021/11/29 05:42:33;;;;;;;6.20;3.55;;;;;;;;;;5091673;28;20023;-63
2021/11/29 05:45:00;;;;;;;6.40;3.72;;;;;;;;;;5091506;28;20039;-69
2021/11/29 05:47:26;;;;;;;7.57;4.07;;;;;;;;;;5091733;28;20111;-63
2021/11/29 05:49:52;;;;;;;5.32;3.10;;;;;;;;;;5091688;28;20069;-63
2021/11/29 05:52:18;;;;;;;5.93;3.75;;;;;;;;;;5091673;28;20085;-65
2021/11/29 05:54:44;;;;;;;5.78;3.35;;;;;;;;;;5091673;28;20019;-67
2021/11/29 05:57:11;;;;;;;5.93;3.30;;;;;;;;;;5073415;28;20482;-69
2021/11/29 05:59:37;;;;;;;6.22;4.18;;;;;;;;;;5073319;28;20074;-74
2021/11/29 06:02:03;;;;;;;5.90;3.45;;;;;;;;;;5092267;28;20035;-70
2021/11/29 06:04:29;;;;;;;5.88;3.20;;;;;;;;;;5095904;28;20099;-68
2021/11/29 06:06:55;;;;;;;5.60;3.28;;;;;;;;;;5077663;28;20021;-73
2021/11/29 06:09:21;;;;;;;5.70;3.33;;;;;;;;;;5077579;28;20493;-66
2021/11/29 06:11:48;;;;;;;5.75;3.40;;;;;;;;;;5095510;28;20506;-66
2021/11/29 06:14:14;;;;;;;7.50;3.65;;;;;;;;;;5095738;28;20491;-71
2021/11/29 06:16:41;;;;;;;6.25;3.58;;;;;;;;;;5096396;28;20498;-78
2021/11/29 06:19:07;;;;;;;5.72;3.30;;;;;;;;;;5096406;28;20016;-81
2021/11/29 06:21:33;;;;;;;6.25;3.72;;;;;;;;;;5095405;28;20020;-83
2021/11/29 06:23:59;;;;;;;5.15;3.25;;;;;;;;;;5095672;28;20028;-80
2021/11/29 06:26:25;;;;;;;5.78;3.33;;;;;;;;;;5095415;28;20414;-71
2021/11/29 06:28:52;;;;;;;6.65;3.30;;;;;;;;;;5095166;28;20055;-80
2021/11/29 06:31:18;;;;;;;6.03;3.28;;;;;;;;;;5076908;28;20060;-71
2021/11/29 06:33:44;;;;;;;5.10;2.88;;;;;;;;;;5094876;28;20027;-67
2021/11/29 06:36:10;;;;;;;5.90;3.40;;;;;;;;;;5094767;28;20016;-66
2021/11/29 06:38:36;;;;;;;5.50;3.55;;;;;;;;;;5076854;28;20031;-64
2021/11/29 06:41:04;;;;;;;5.88;3.30;;;;;;;;;;5094909;28;20095;-63
2021/11/29 06:43:30;;;;;;;5.95;3.47;;;;;;;;;;5094991;28;20028;-63
2021/11/29 06:45:57;;;;;;;5.55;3.15;;;;;;;;;;5094750;28;20036;-63
2021/11/29 06:48:23;;;;;;;5.50;3.38;;;;;;;;;;5094807;28;20103;-64
2021/11/29 06:50:51;;;;;;;6.50;3.60;;;;;;;;;;5094651;28;20024;-64
2021/11/29 06:53:17;;;;;;;7.43;3.55;;;;;;;;;;5093893;28;20394;-63
2021/11/29 06:55:46;;;;;;;5.95;3.25;;;;;;;;;;5076433;28;20020;-67
2021/11/29 06:58:12;;;;;;;5.75;3.20;;;;;;;;;;5076278;28;20386;-64
2021/11/29 07:00:38;;;;;;;5.03;2.72;;;;;;;;;;5094594;28;20363;-65
2021/11/29 07:03:04;;;;;;;5.68;3.58;;;;;;;;;;5094473;28;20088;-67
2021/11/29 07:05:30;;;;;;;6.50;3.78;;;;;;;;;;5094581;28;20035;-64
2021/11/29 07:07:57;;;;;;;5.63;3.50;;;;;;;;;;5094767;28;20371;-67
2021/11/29 07:10:24;;;;;;;6.20;3.50;;;;;;;;;;5094587;28;20406;-75
2021/11/29 07:12:51;;;;;;;5.85;3.30;;;;;;;;;;5094401;28;20036;-63
2021/11/29 07:15:18;;;;;;;7.13;3.10;;;;;;;;;;5093282;28;20028;-69
2021/11/29 07:17:44;;;;;;;5.82;3.42;;;;;;;;;;5094288;28;20020;-62
2021/11/29 07:20:10;;;;;;;6.50;3.42;;;;;;;;;;5094335;28;20089;-80
2021/11/29 07:22:37;;;;;;;5.57;3.30;;;;;;;;;;5094237;28;20052;-77
2021/11/29 07:25:04;;;;;;;4.95;3.17;;;;;;;;;;5094287;28;20459;-79
2021/11/29 07:27:31;;;;;;;6.75;4.05;;;;;;;;;;5076318;28;20517;-74
2021/11/29 07:29:57;;;;;;;5.75;3.17;;;;;;;;;;5113844;28;20073;-85
2021/11/29 07:32:25;;;;;;;5.97;3.50;;;;;;;;;;5114741;28;20038;-84
2021/11/29 07:34:51;;;;;;;5.40;3.05;;;;;;;;;;5114164;28;20016;-76
2021/11/29 07:37:19;;;;;;;5.60;3.38;;;;;;;;;;5114262;28;20024;-63
2021/11/29 07:39:46;;;;;;;5.50;3.00;;;;;;;;;;5114177;28;20023;-64
2021/11/29 07:42:12;;;;;;;5.43;2.92;;;;;;;;;;5095833;28;20070;-66
2021/11/29 07:44:38;;;;;;;6.25;3.50;;;;;;;;;;5114214;28;20058;-64
2021/11/29 07:47:04;;;;;;;5.38;3.28;;;;;;;;;;5095968;28;20053;-67
2021/11/29 07:49:30;;;;;;;5.85;3.38;;;;;;;;;;5114105;28;20023;-73
2021/11/29 07:51:56;;;;;;;5.90;3.47;;;;;;;;;;5113855;28;20113;-76
2021/11/29 07:54:22;;;;;;;6.47;3.55;;;;;;;;;;5113773;28;20072;-81
2021/11/29 07:56:48;;;;;;;5.60;3.30;;;;;;;;;;5113876;28;20047;-79
2021/11/29 07:59:14;;;;;;;5.32;3.28;;;;;;;;;;5095483;28;20080;-71
2021/11/29 08:01:40;;;;;;;7.43;3.55;;;;;;;;;;5114070;28;20107;-71
2021/11/29 08:04:06;;;;;;;5.90;3.30;;;;;;;;;;5114002;28;20020;-82
2021/11/29 08:06:32;;;;;;;6.53;3.45;;;;;;;;;;5113974;28;20031;-75
2021/11/29 08:08:59;;;;;;;5.18;2.72;;;;;;;;;;5113962;28;20020;-70
2021/11/29 08:11:25;;;;;;;6.50;3.33;;;;;;;;;;5113870;28;20038;-68
2021/11/29 08:13:51;;;;;;;5.57;3.13;;;;;;;;;;5113902;28;20136;-76
2021/11/29 08:16:17;;;;;;;5.90;3.33;;;;;;;;;;5113803;28;20024;-78
2021/11/29 08:18:43;;;;;;;5.60;3.20;;;;;;;;;;5113800;28;20483;-79
2021/11/29 08:21:10;;;;;;;5.55;3.13;;;;;;;;;;5113825;28;20589;-83
2021/11/29 08:23:36;;;;;;;7.43;3.88;;;;;;;;;;5113473;28;20113;-79
2021/11/29 08:26:02;;;;;;;5.72;3.30;;;;;;;;;;5113280;28;20035;-79
2021/11/29 08:28:29;;;;;;;6.72;3.38;;;;;;;;;;5113196;28;20028;-83
2021/11/29 08:30:55;;;;;;;6.75;3.55;;;;;;;;;;5113035;28;20053;-76
2021/11/29 08:33:21;;;;;;;6.07;3.75;;;;;;;;;;5113301;28;20387;-64
2021/11/29 08:35:47;;;;;;;11.88;4.20;;;;;;;;;;5094878;28;20023;-71
2021/11/29 08:38:14;;;;;;;6.88;3.65;;;;;;;;;;5113124;28;20031;-69
2021/11/29 08:40:40;;;;;;;6.47;4.00;;;;;;;;;;5112856;28;20023;-71
2021/11/29 08:43:08;;;;;;;10.18;4.13;;;;;;;;;;5113084;28;20490;-63
2021/11/29 08:45:35;;;;;;;5.95;3.58;;;;;;;;;;5112783;28;20051;-74
2021/11/29 08:48:02;;;;;;;15.05;6.57;;;;;;;;;;5112712;28;20016;-64
2021/11/29 08:50:28;;;;;;;19.25;5.00;;;;;;;;;;5097937;28;20022;-75
2021/11/29 08:52:55;;;;;;;17.05;5.45;;;;;;;;;;5073821;28;20514;-75
2021/11/29 08:55:21;;;;;;;21.58;10.18;;;;;;;;;;5091953;28;20016;-74
2021/11/29 08:57:47;;;;;;;16.63;8.18;;;;;;;;;;5091959;28;20020;-75
2021/11/29 09:00:16;;;;;;;17.88;7.05;;;;;;;;;;5091948;28;20026;-76
2021/11/29 09:02:42;;;;;;;16.92;7.10;;;;;;;;;;5096325;28;20051;-73
2021/11/29 09:05:09;;;;;;;21.58;7.07;;;;;;;;;;5103879;28;20070;-76
2021/11/29 09:07:35;;;;;;;12.52;6.32;;;;;;;;;;5073556;28;20157;-76
2021/11/29 09:10:01;;;;;;;13.23;6.57;;;;;;;;;;5092232;28;20070;-80
2021/11/29 09:12:27;;;;;;;10.68;5.72;;;;;;;;;;5092080;28;20039;-76
2021/11/29 09:14:53;;;;;;;17.98;6.05;;;;;;;;;;5091467;28;20020;-77
2021/11/29 09:17:19;;;;;;;13.98;6.03;;;;;;;;;;5091655;28;20024;-75
2021/11/29 09:19:45;;;;;;;10.63;5.78;;;;;;;;;;5091914;28;20095;-75
2021/11/29 09:22:12;;;;;;;10.20;5.63;;;;;;;;;;5091706;28;20107;-64
2021/11/29 09:24:38;;;;;;;9.85;5.30;;;;;;;;;;5091764;28;20491;-64
2021/11/29 09:27:04;;;;;;;13.30;5.78;;;;;;;;;;5091746;28;20051;-70
2021/11/29 09:29:30;;;;;;;9.05;4.50;;;;;;;;;;5073671;28;20013;-74
2021/11/29 09:31:58;;;;;;;9.02;5.07;;;;;;;;;;5091623;28;20117;-63
2021/11/29 09:34:24;;;;;;;9.13;4.95;;;;;;;;;;5091979;28;20387;-75
2021/11/29 09:36:51;;;;;;;8.27;4.60;;;;;;;;;;5091041;28;20069;-73
2021/11/29 09:39:17;;;;;;;8.00;4.55;;;;;;;;;;5096435;28;20501;-71
2021/11/29 09:41:43;;;;;;;10.35;4.90;;;;;;;;;;5111745;28;20034;-64
2021/11/29 09:44:09;;;;;;;7.38;4.40;;;;;;;;;;5111951;28;20020;-75
2021/11/29 09:46:35;;;;;;;8.43;4.28;;;;;;;;;;5111648;28;20126;-73
2021/11/29 09:49:02;;;;;;;8.15;4.03;;;;;;;;;;5111866;28;20031;-70
2021/11/29 09:51:29;;;;;;;6.72;3.33;;;;;;;;;;5111685;28;20032;-75
2021/11/29 09:53:57;;;;;;;7.88;4.03;;;;;;;;;;5111732;28;20039;-70
2021/11/29 09:56:23;;;;;;;8.93;4.25;;;;;;;;;;5111955;28;20020;-66
2021/11/29 09:58:49;;;;;;;7.40;3.90;;;;;;;;;;5098554;28;20509;-73
2021/11/29 10:01:16;;;;;;;7.55;3.80;;;;;;;;;;5091182;28;20467;-70
2021/11/29 10:03:42;;;;;;;8.00;3.85;;;;;;;;;;5091370;28;20016;-77
2021/11/29 10:06:08;;;;;;;7.13;3.78;;;;;;;;;;5091460;28;20479;-72
2021/11/29 10:08:36;;;;;;;7.35;3.78;;;;;;;;;;5091277;28;20028;-76
2021/11/29 10:11:07;;;;;;;8.35;3.80;;;;;;;;;;5090974;28;20031;-74
2021/11/29 10:13:51;;;;;;;6.22;3.50;;;;;;;;;;5091361;28;20024;-75
2021/11/29 10:16:30;;;;;;;6.95;3.22;;;;;;;;;;5073165;28;20020;-77
2021/11/29 10:18:56;;;;;;;6.57;3.80;;;;;;;;;;5091428;28;20191;-78
2021/11/29 10:21:22;;;;;;;6.15;3.55;;;;;;;;;;5091318;28;20024;-77
2021/11/29 10:23:50;;;;;;;5.45;3.15;;;;;;;;;;5091226;28;20107;-88
2021/11/29 10:26:25;;;;;;;6.53;3.78;;;;;;;;;;5091231;28;20027;-76
2021/11/29 10:28:59;;;;;;;5.30;3.15;;;;;;;;;;5091083;28;20021;-76
2021/11/29 10:31:31;;;;;;;5.43;3.33;;;;;;;;;;5091016;28;20089;-74
2021/11/29 10:34:00;;;;;;;5.03;2.78;;;;;;;;;;5091170;28;20024;-80
2021/11/29 10:36:28;;;;;;;5.57;3.05;;;;;;;;;;5091494;28;20016;-80
2021/11/29 10:38:58;;;;;;;6.45;2.85;;;;;;;;;;5091101;28;20028;-82
2021/11/29 10:41:34;;;;;;;5.95;3.35;;;;;;;;;;5073024;28;20024;-79
2021/11/29 10:44:02;;;;;;;6.07;3.28;;;;;;;;;;5090897;28;20020;-80
2021/11/29 10:46:34;;;;;;;6.80;3.50;;;;;;;;;;5072475;28;20044;-78
2021/11/29 10:49:08;;;;;;;5.60;2.75;;;;;;;;;;5091972;28;20110;-77
2021/11/29 10:51:35;;;;;;;5.43;3.20;;;;;;;;;;5094462;28;20028;-77
2021/11/29 10:54:02;;;;;;;6.75;3.22;;;;;;;;;;5094379;28;20031;-77
2021/11/29 10:56:30;;;;;;;7.35;3.17;;;;;;;;;;5094535;28;20066;-79
2021/11/29 10:58:57;;;;;;;5.90;3.17;;;;;;;;;;5094202;28;20030;-74
2021/11/29 11:01:35;;;;;;;6.47;3.22;;;;;;;;;;5094340;28;20024;-79
2021/11/29 11:04:02;;;;;;;5.97;3.10;;;;;;;;;;5094210;28;20031;-77
2021/11/29 11:06:32;;;;;;;7.47;3.50;;;;;;;;;;5093817;28;20474;-71
2021/11/29 11:08:59;;;;;;;7.03;3.92;;;;;;;;;;5094067;28;20025;-69
2021/11/29 11:11:29;;;;;;;5.78;3.05;;;;;;;;;;5094035;28;20032;-71
2021/11/29 11:13:59;;;;;;;5.90;3.28;;;;;;;;;;5094181;28;20016;-78
2021/11/29 11:16:41;;;;;;;6.43;3.33;;;;;;;;;;5094126;28;20031;-67
2021/11/29 11:19:11;;;;;;;8.45;3.00;;;;;;;;;;5093936;28;20078;-82
2021/11/29 11:21:38;;;;;;;6.43;3.10;;;;;;;;;;5095831;28;20025;-76
2021/11/29 11:24:22;;;;;;;4.53;2.75;;;;;;;;;;5114263;28;20042;-80
2021/11/29 11:26:49;;;;;;;6.28;3.42;;;;;;;;;;5114468;28;20030;-66
2021/11/29 11:29:30;;;;;;;5.32;3.13;;;;;;;;;;5114308;28;20019;-74
2021/11/29 11:32:07;;;;;;;6.25;3.28;;;;;;;;;;5114301;28;20027;-75
2021/11/29 11:34:34;;;;;;;7.72;3.13;;;;;;;;;;5114384;28;20130;-77
2021/11/29 11:37:00;;;;;;;5.18;3.15;;;;;;;;;;5114381;28;20359;-78
2021/11/29 11:39:27;;;;;;;7.18;3.72;;;;;;;;;;5114194;28;20069;-68
2021/11/29 11:41:53;;;;;;;6.18;3.40;;;;;;;;;;5114024;28;20024;-78
2021/11/29 11:44:20;;;;;;;5.15;2.92;;;;;;;;;;5101919;28;20371;-72
2021/11/29 11:46:46;;;;;;;5.20;3.10;;;;;;;;;;5099895;28;20093;-70
2021/11/29 11:49:13;;;;;;;4.80;2.70;;;;;;;;;;5095668;28;20081;-76
2021/11/29 11:51:39;;;;;;;5.88;3.10;;;;;;;;;;5113569;28;20028;-75
2021/11/29 11:54:05;;;;;;;6.20;3.17;;;;;;;;;;5114033;28;20055;-71
2021/11/29 11:56:31;;;;;;;6.15;3.10;;;;;;;;;;5114026;28;20015;-76
2021/11/29 11:59:03;;;;;;;6.80;3.05;;;;;;;;;;5099856;28;20110;-75
2021/11/29 12:01:30;;;;;;;5.93;2.88;;;;;;;;;;5093062;28;20032;-75
2021/11/29 12:03:56;;;;;;;6.32;2.80;;;;;;;;;;5093404;28;20024;-80
2021/11/29 12:06:33;;;;;;;5.90;2.92;;;;;;;;;;5075372;28;20037;-78
2021/11/29 12:09:00;;;;;;;6.50;3.20;;;;;;;;;;5074903;28;20029;-72
2021/11/29 12:11:27;;;;;;;45.63;12.73;;;;;;;;;;5092902;28;20035;-71
2021/11/29 12:14:12;;;;;;;16.60;6.55;;;;;;;;;;5093011;28;20045;-63
2021/11/29 12:16:46;;;;;;;13.90;5.47;;;;;;;;;;5096690;28;20495;-75
2021/11/29 12:19:33;;;;;;;14.18;5.95;;;;;;;;;;5095155;28;20521;-68
2021/11/29 12:22:04;;;;;;;18.33;6.28;;;;;;;;;;5113305;28;20092;-66
2021/11/29 12:24:39;;;;;;;12.93;5.35;;;;;;;;;;5094913;28;20015;-80
2021/11/29 12:27:06;;;;;;;11.80;4.28;;;;;;;;;;5113270;28;20026;-72
2021/11/29 12:29:32;;;;;;;11.20;4.90;;;;;;;;;;5113135;28;20020;-78
2021/11/29 12:32:04;;;;;;;14.50;4.40;;;;;;;;;;5113098;28;20032;-77
2021/11/29 12:37:11;;;;;;;12.50;4.68;;;;;;;;;;5112906;28;20023;-64
2021/11/29 12:39:48;;;;;;;10.32;4.63;;;;;;;;;;5094467;28;20110;-73
2021/11/29 12:44:46;;;;;;;10.43;4.10;;;;;;;;;;5112769;28;20023;-74
2021/11/29 12:47:16;;;;;;;8.75;3.60;;;;;;;;;;5112708;28;20024;-79
2021/11/29 12:49:43;;;;;;;8.88;3.70;;;;;;;;;;5112431;28;20030;-77
2021/11/29 12:52:29;;;;;;;10.90;3.63;;;;;;;;;;5112499;28;20063;-79
2021/11/29 12:54:56;;;;;;;9.10;3.63;;;;;;;;;;5112367;28;20062;-71
2021/11/29 12:57:28;;;;;;;10.18;4.32;;;;;;;;;;5112095;28;20023;-65
2021/11/29 13:00:00;;;;;;;9.25;3.90;;;;;;;;;;5074057;28;20092;-76
2021/11/29 13:02:45;;;;;;;7.85;3.40;;;;;;;;;;5098147;28;20070;-72
2021/11/29 13:05:26;;;;;;;8.25;3.83;;;;;;;;;;5112015;28;20023;-75
2021/11/29 13:08:10;;;;;;;7.95;3.20;;;;;;;;;;5111902;28;20042;-67
2021/11/29 13:10:57;;;;;;;7.00;3.50;;;;;;;;;;5112173;28;20508;-75
2021/11/29 13:13:26;;;;;;;6.70;3.28;;;;;;;;;;5111464;28;20031;-72
2021/11/29 13:15:53;;;;;;;6.18;3.17;;;;;;;;;;5111940;28;20022;-74
2021/11/29 13:18:38;;;;;;;6.13;3.30;;;;;;;;;;5111906;28;20047;-63
2021/11/29 13:21:04;;;;;;;37.65;4.75;;;;;;;;;;5093772;28;20020;-65
2021/11/29 13:23:30;;;;;;;29.08;4.90;;;;;;;;;;5110499;28;20024;-64
2021/11/29 13:26:06;;;;;;;29.63;4.85;;;;;;;;;;5110439;28;20438;-74
2021/11/29 13:28:32;;;;;;;31.13;4.50;;;;;;;;;;5111394;28;20027;-68
2021/11/29 13:30:58;;;;;;;23.40;4.03;;;;;;;;;;5093077;28;20035;-62
2021/11/29 13:33:24;;;;;;;33.03;4.50;;;;;;;;;;5111368;28;20035;-63
2021/11/29 13:35:50;;;;;;;19.05;3.90;;;;;;;;;;5093402;28;20031;-69
2021/11/29 13:38:16;;;;;;;18.13;3.72;;;;;;;;;;5111807;28;20417;-75
2021/11/29 13:40:42;;;;;;;14.32;3.70;;;;;;;;;;5111689;28;20027;-73
2021/11/29 13:43:09;;;;;;;18.60;3.47;;;;;;;;;;5093405;28;20020;-74
2021/11/29 13:45:38;;;;;;;20.80;4.28;;;;;;;;;;5093245;28;20075;-65
2021/11/29 13:48:13;;;;;;;24.58;3.55;;;;;;;;;;5093569;28;20131;-66
2021/11/29 13:50:44;;;;;;;18.30;3.90;;;;;;;;;;5111645;28;20379;-75
2021/11/29 13:53:13;;;;;;;23.42;3.85;;;;;;;;;;5111677;28;20438;-76
2021/11/29 13:55:48;;;;;;;19.15;3.70;;;;;;;;;;5111034;28;20020;-63
2021/11/29 13:58:26;;;;;;;18.13;3.83;;;;;;;;;;5108834;28;20501;-64
2021/11/29 14:01:02;;;;;;;11.20;3.67;;;;;;;;;;5111433;28;20019;-79
2021/11/29 14:03:32;;;;;;;16.33;3.70;;;;;;;;;;5093158;28;20027;-75
2021/11/29 14:06:06;;;;;;;11.77;3.20;;;;;;;;;;5111572;28;20074;-78
2021/11/29 14:08:36;;;;;;;15.50;4.18;;;;;;;;;;5111525;28;20020;-78
2021/11/29 14:11:06;;;;;;;15.50;3.40;;;;;;;;;;5097187;28;20112;-67
2021/11/29 14:13:35;;;;;;;14.30;3.97;;;;;;;;;;5111582;28;20032;-66
2021/11/29 14:16:02;;;;;;;6.32;3.10;;;;;;;;;;5093175;28;20081;-76
2021/11/29 14:18:33;;;;;;;8.25;3.47;;;;;;;;;;5111518;28;20019;-76
2021/11/29 14:21:02;;;;;;;10.30;3.40;;;;;;;;;;5111339;28;20026;-73
2021/11/29 14:23:37;;;;;;;9.60;3.60;;;;;;;;;;5112988;28;20031;-75
2021/11/29 14:26:03;;;;;;;10.50;3.50;;;;;;;;;;5115642;28;20030;-68
2021/11/29 14:28:29;;;;;;;9.38;3.00;;;;;;;;;;5115472;28;20027;-78
2021/11/29 14:30:55;;;;;;;14.68;3.33;;;;;;;;;;5115819;28;20471;-76
2021/11/29 14:33:24;;;;;;;8.40;2.92;;;;;;;;;;5115291;28;20039;-73
2021/11/29 14:35:50;;;;;;;7.45;2.90;;;;;;;;;;5097024;28;20529;-63
2021/11/29 14:38:16;;;;;;;10.43;3.42;;;;;;;;;;5115333;28;20409;-72
2021/11/29 14:40:42;;;;;;;8.68;3.28;;;;;;;;;;5115258;28;20026;-66
2021/11/29 14:43:08;;;;;;;7.57;2.80;;;;;;;;;;5097019;28;20026;-64
2021/11/29 14:45:36;;;;;;;9.05;3.65;;;;;;;;;;5115002;28;20055;-79
2021/11/29 14:48:02;;;;;;;6.30;3.25;;;;;;;;;;5115193;28;20016;-77